KMVL/MVL METAR and TAF weather

Enter ICAO airport designator
Station Type Date Time Source
KMVL METAR 2019/04/18 13:54 UTC NOAA

KMVL 181354Z AUTO 18015G22KT 10SM OVC055 06/M01 A3008 RMK AO2 RAE44 SLP194 P0001 T00561006


Station Type Date Time Source
KMVL Decoded METAR 2019/04/18 13:54 UTC NOAA

MORRISVILLE STOWE STATE AIRPORT , VT, United States (KMVL) 44-32N 72-37W 223M
Apr 18, 2019 - 09:54 AM EDT / 2019.04.18 1354 UTC
Wind: from the S (180 degrees) at 17 MPH (15 KT) gusting to 25 MPH (22 KT):0
Visibility: 10 mile(s):0
Sky conditions: overcast
Precipitation last hour: 0.01 inches
Temperature: 42.1 F (5.6 C)
Dew Point: 30.9 F (-0.6 C)
Relative Humidity: 64%
Pressure (altimeter): 30.08 in. Hg (1018 hPa)
ob: KMVL 181354Z AUTO 18015G22KT 10SM OVC055 06/M01 A3008 RMK AO2 RAE44 SLP194 P0001 T00561006
cycle: 14

Station Type Date Time Source
KMVL TAF UTC NOAA

Error!

Example: see airport list